KSRQ/SRQ METAR and TAF weather

Enter ICAO airport designator
Station Type Date Time Source
KSRQ METAR 2019/08/24 17:00 UTC NOAA

KSRQ 241700Z 02008KT 10SM SCT033 BKN046 32/24 A2993 RMK AO2 T03220239


Station Type Date Time Source
KSRQ Decoded METAR 2019/08/24 17:00 UTC NOAA

Station name not available
Aug 24, 2019 - 01:00 PM EDT / 2019.08.24 1700 UTC
Wind: from the NNE (020 degrees) at 9 MPH (8 KT):0
Visibility: 10 mile(s):0
Sky conditions: mostly cloudy
Temperature: 90.0 F (32.2 C)
Heat index: 100.2 F (37.9 C):1
Dew Point: 75.0 F (23.9 C)
Relative Humidity: 61%
Pressure (altimeter): 29.93 in. Hg (1013 hPa)
ob: KSRQ 241700Z 02008KT 10SM SCT033 BKN046 32/24 A2993 RMK AO2 T03220239
cycle: 17

Station Type Date Time Source
KSRQ TAF 2019/08/24 18:30 UTC NOAA

TAF KSRQ 241728Z 2418/2518 02007KT P6SM SCT025 BKN050
FM242000 36009KT P6SM VCTS BKN040CB
FM250200 06005KT P6SM FEW030 SCT250
FM250900 05004KT P6SM FEW020 BKN100
FM251500 03007KT P6SM SCT030 SCT100

Example: see airport list